createdAt,value
2022-10-22T00:00:52.894Z,4.28
2022-10-22T00:06:01.978Z,4.38
2022-10-22T00:11:10.790Z,4.27
2022-10-22T00:16:15.637Z,4.30
2022-10-22T00:21:20.978Z,4.10
2022-10-22T00:26:24.941Z,4.09
2022-10-22T00:31:28.878Z,4.23
2022-10-22T00:36:34.186Z,4.17
2022-10-22T00:41:38.136Z,4.26
2022-10-22T00:46:42.033Z,4.19
2022-10-22T00:51:47.327Z,4.13
2022-10-22T00:56:51.493Z,4.04
2022-10-22T01:01:55.624Z,4.02
2022-10-22T01:07:01.278Z,3.99
2022-10-22T01:12:13.822Z,3.94
2022-10-22T01:17:25.001Z,4.16
2022-10-22T01:22:33.801Z,4.23
2022-10-22T01:27:53.451Z,4.44
2022-10-22T01:33:04.282Z,4.36
2022-10-22T01:38:13.562Z,4.26
2022-10-22T01:43:17.559Z,4.01
2022-10-22T01:48:40.028Z,3.91
2022-10-22T01:53:52.649Z,3.78
2022-10-22T01:59:05.816Z,3.65
2022-10-22T02:04:18.355Z,3.66
2022-10-22T02:09:24.789Z,3.67
2022-10-22T02:14:32.642Z,3.61
2022-10-22T02:19:44.405Z,3.51
2022-10-22T02:24:50.309Z,3.51
2022-10-22T02:29:59.742Z,3.66
2022-10-22T02:35:06.513Z,3.76
2022-10-22T02:40:11.354Z,3.76
2022-10-22T02:45:15.403Z,3.77
2022-10-22T02:50:20.705Z,3.75
2022-10-22T02:55:24.586Z,3.74
2022-10-22T03:00:29.865Z,3.88
2022-10-22T03:05:35.277Z,3.94
2022-10-22T03:10:39.172Z,3.88
2022-10-22T03:15:43.038Z,3.87
2022-10-22T03:20:48.318Z,3.75
2022-10-22T03:25:52.395Z,3.66
2022-10-22T03:30:56.331Z,3.63
2022-10-22T03:36:02.166Z,3.57
2022-10-22T03:41:06.376Z,3.53
2022-10-22T03:46:10.256Z,3.40
2022-10-22T03:51:15.557Z,3.54
2022-10-22T03:56:19.521Z,3.53
2022-10-22T04:01:23.464Z,3.49
2022-10-22T04:06:30.669Z,3.55
2022-10-22T04:11:34.639Z,3.46
2022-10-22T04:16:40.522Z,3.59
2022-10-22T04:21:46.144Z,3.52
2022-10-22T04:26:50.682Z,3.62
2022-10-22T04:31:54.810Z,3.65
2022-10-22T04:37:00.170Z,3.72
2022-10-22T04:42:04.961Z,3.75
2022-10-22T04:47:09.173Z,3.85
2022-10-22T04:52:14.605Z,4.29
2022-10-22T04:57:18.617Z,4.36
2022-10-22T05:02:22.514Z,4.59
2022-10-22T05:07:27.876Z,4.83
2022-10-22T05:12:31.934Z,5.08
2022-10-22T05:17:37.561Z,5.29
2022-10-22T05:22:43.294Z,5.57
2022-10-22T05:27:50.571Z,5.68
2022-10-22T05:32:54.510Z,5.96
2022-10-22T05:38:00.006Z,6.11
2022-10-22T05:43:04.636Z,6.18
2022-10-22T05:48:09.876Z,6.28
2022-10-22T05:53:15.652Z,6.32
2022-10-22T05:58:19.820Z,6.41
2022-10-22T06:03:24.867Z,6.76
2022-10-22T06:08:31.314Z,7.24
2022-10-22T06:13:35.421Z,7.49
2022-10-22T06:18:39.541Z,8.10
2022-10-22T06:23:45.573Z,8.80
2022-10-22T06:28:49.602Z,8.40
2022-10-22T06:33:54.143Z,8.17
2022-10-22T06:38:59.922Z,8.39
2022-10-22T06:44:04.004Z,8.73
2022-10-22T06:49:08.145Z,9.27
2022-10-22T06:54:13.717Z,9.22
2022-10-22T06:59:17.765Z,10.16
2022-10-22T07:04:21.880Z,11.56
2022-10-22T07:09:27.528Z,12.14
2022-10-22T07:14:31.460Z,11.85
2022-10-22T07:19:35.686Z,10.83
2022-10-22T07:24:41.011Z,11.14
2022-10-22T07:29:48.559Z,11.64
2022-10-22T07:34:52.603Z,12.08
2022-10-22T07:40:01.499Z,12.02
2022-10-22T07:45:09.199Z,12.12
2022-10-22T07:50:13.193Z,12.23
2022-10-22T07:55:18.735Z,12.97
2022-10-22T08:00:25.202Z,13.27
2022-10-22T08:05:29.595Z,14.13
2022-10-22T08:10:35.309Z,15.13
2022-10-22T08:15:42.803Z,14.59
2022-10-22T08:20:50.461Z,13.68
2022-10-22T08:25:56.698Z,13.89
2022-10-22T08:31:00.659Z,14.85
2022-10-22T08:36:04.786Z,16.14
2022-10-22T08:41:15.162Z,16.87
2022-10-22T08:46:32.001Z,16.94
2022-10-22T08:51:40.659Z,16.95
2022-10-22T08:56:53.751Z,17.86
2022-10-22T09:01:57.753Z,17.82
2022-10-22T09:07:02.292Z,17.62
2022-10-22T09:12:08.778Z,17.53
2022-10-22T09:17:26.917Z,17.94
2022-10-22T09:22:40.887Z,18.33
2022-10-22T09:27:46.971Z,19.15
2022-10-22T09:32:56.566Z,19.20
2022-10-22T09:38:08.316Z,19.15
2022-10-22T09:43:15.884Z,18.95
2022-10-22T09:48:26.519Z,19.32
2022-10-22T09:53:32.130Z,20.06
2022-10-22T09:58:45.096Z,20.05
2022-10-22T10:03:50.374Z,20.77
2022-10-22T10:08:54.356Z,20.85
2022-10-22T10:14:09.623Z,20.85
2022-10-22T10:19:30.006Z,21.02
2022-10-22T10:24:51.579Z,21.92
2022-10-22T10:30:03.024Z,21.37
2022-10-22T10:35:22.850Z,20.98
2022-10-22T10:40:32.854Z,21.98
2022-10-22T10:45:49.531Z,21.50
2022-10-22T10:51:04.746Z,21.99
2022-10-22T10:56:23.195Z,20.98
2022-10-22T11:01:33.767Z,21.61
2022-10-22T11:06:40.687Z,22.14
2022-10-22T11:11:47.766Z,22.26
2022-10-22T11:16:59.273Z,21.61
2022-10-22T11:22:08.514Z,22.01
2022-10-22T11:27:21.970Z,21.64
2022-10-22T11:32:30.229Z,22.50
2022-10-22T11:37:39.202Z,22.29
2022-10-22T11:42:49.278Z,23.26
2022-10-22T11:48:00.379Z,22.53
2022-10-22T11:53:06.240Z,22.44
2022-10-22T11:58:31.684Z,22.28
2022-10-22T12:03:44.047Z,20.84
2022-10-22T12:08:55.630Z,19.62
2022-10-22T12:14:23.129Z,19.68
2022-10-22T12:19:33.027Z,19.52
2022-10-22T12:24:40.572Z,19.56
2022-10-22T12:29:44.478Z,19.23
2022-10-22T12:34:51.735Z,21.03
2022-10-22T12:39:55.632Z,21.48
2022-10-22T12:44:59.651Z,22.09
2022-10-22T12:50:07.457Z,21.93
2022-10-22T12:55:17.588Z,21.55
2022-10-22T13:00:23.900Z,21.80
2022-10-22T13:05:38.894Z,21.91
2022-10-22T13:10:50.264Z,21.47
2022-10-22T13:15:56.108Z,21.54
2022-10-22T13:21:03.312Z,20.92
2022-10-22T13:26:15.530Z,21.00
2022-10-22T13:31:21.962Z,20.80
2022-10-22T13:36:27.253Z,20.74
2022-10-22T13:41:33.301Z,20.94
2022-10-22T13:46:42.577Z,20.53
2022-10-22T13:51:48.381Z,20.32
2022-10-22T13:56:52.814Z,20.27
2022-10-22T14:01:57.135Z,19.86
2022-10-22T14:07:03.920Z,19.64
2022-10-22T14:12:11.347Z,19.54
2022-10-22T14:17:17.837Z,18.95
2022-10-22T14:22:26.135Z,18.45
2022-10-22T14:27:30.010Z,18.07
2022-10-22T14:32:33.974Z,17.48
2022-10-22T14:37:39.418Z,17.23
2022-10-22T14:42:45.715Z,16.70
2022-10-22T14:47:50.468Z,16.36
2022-10-22T14:52:57.373Z,15.98
2022-10-22T14:58:01.430Z,15.67
2022-10-22T15:03:05.490Z,15.32
2022-10-22T15:08:11.045Z,15.08
2022-10-22T15:13:14.972Z,14.87
2022-10-22T15:18:18.882Z,15.04
2022-10-22T15:23:24.282Z,14.69
2022-10-22T15:28:28.304Z,14.67
2022-10-22T15:33:32.270Z,14.40
2022-10-22T15:38:37.598Z,14.34
2022-10-22T15:43:42.120Z,14.25
2022-10-22T15:48:46.752Z,13.81
2022-10-22T15:53:55.074Z,13.54
2022-10-22T15:59:00.790Z,13.46
2022-10-22T16:04:05.168Z,13.52
2022-10-22T16:09:13.632Z,13.49
2022-10-22T16:14:19.975Z,13.45
2022-10-22T16:19:25.771Z,13.35
2022-10-22T16:24:31.053Z,13.31
2022-10-22T16:29:35.373Z,13.08
2022-10-22T16:34:39.326Z,12.98
2022-10-22T16:39:44.614Z,12.79
2022-10-22T16:44:48.507Z,12.72
2022-10-22T16:49:52.400Z,12.54
2022-10-22T16:54:58.199Z,12.32
2022-10-22T17:00:02.071Z,12.19
2022-10-22T17:05:08.004Z,12.26
2022-10-22T17:10:15.506Z,11.86
2022-10-22T17:15:24.745Z,11.73
2022-10-22T17:20:28.947Z,11.68
2022-10-22T17:25:43.028Z,11.59
2022-10-22T17:30:48.712Z,11.48
2022-10-22T17:35:53.454Z,11.48
2022-10-22T17:41:04.111Z,11.33
2022-10-22T17:46:12.025Z,11.53
2022-10-22T17:51:22.097Z,11.34
2022-10-22T17:56:33.518Z,11.23
2022-10-22T18:01:43.476Z,11.27
2022-10-22T18:06:48.151Z,11.15
2022-10-22T18:11:55.624Z,11.07
2022-10-22T18:16:59.273Z,10.94
2022-10-22T18:22:03.110Z,10.92
2022-10-22T18:27:08.881Z,10.79
2022-10-22T18:32:13.355Z,10.83
2022-10-22T18:37:17.354Z,10.69
2022-10-22T18:42:23.945Z,10.58
2022-10-22T18:47:29.412Z,10.51
2022-10-22T18:52:33.346Z,10.34
2022-10-22T18:57:39.002Z,10.10
2022-10-22T19:02:44.107Z,10.08
2022-10-22T19:07:48.386Z,9.99
2022-10-22T19:12:53.851Z,9.90
2022-10-22T19:17:58.012Z,9.93
2022-10-22T19:23:02.060Z,9.86
2022-10-22T19:28:07.676Z,9.81
2022-10-22T19:33:11.858Z,9.71
2022-10-22T19:38:15.782Z,9.60
2022-10-22T19:43:21.098Z,9.49
2022-10-22T19:48:25.551Z,9.32
2022-10-22T19:53:29.504Z,9.33
2022-10-22T19:58:35.574Z,9.35
2022-10-22T20:03:40.082Z,9.34
2022-10-22T20:08:44.440Z,9.14
2022-10-22T20:13:52.225Z,9.06
2022-10-22T20:19:00.954Z,9.08
2022-10-22T20:24:05.753Z,9.12
2022-10-22T20:29:11.643Z,9.02
2022-10-22T20:34:16.113Z,9.12
2022-10-22T20:39:20.849Z,9.24
2022-10-22T20:44:26.127Z,9.13
2022-10-22T20:49:30.138Z,9.11
2022-10-22T20:54:34.920Z,8.94
2022-10-22T20:59:40.617Z,8.75
2022-10-22T21:04:46.399Z,8.87
2022-10-22T21:09:50.495Z,8.76
2022-10-22T21:14:55.781Z,8.92
2022-10-22T21:20:01.303Z,8.96
2022-10-22T21:25:05.658Z,8.86
2022-10-22T21:30:12.160Z,8.91
2022-10-22T21:35:16.335Z,9.22
2022-10-22T21:40:21.996Z,9.05
2022-10-22T21:45:27.612Z,9.01
2022-10-22T21:50:31.669Z,8.79
2022-10-22T21:55:39.045Z,8.68
2022-10-22T22:00:44.354Z,8.73
2022-10-22T22:05:48.973Z,8.63
2022-10-22T22:10:55.060Z,8.64
2022-10-22T22:16:05.446Z,8.67
2022-10-22T22:21:12.072Z,8.71
2022-10-22T22:26:18.533Z,8.69
2022-10-22T22:31:26.842Z,8.67
2022-10-22T22:36:35.068Z,8.82
2022-10-22T22:41:39.238Z,8.76
2022-10-22T22:46:45.074Z,8.75
2022-10-22T22:51:50.452Z,8.67
2022-10-22T22:56:54.351Z,8.67
2022-10-22T23:01:59.907Z,8.66
2022-10-22T23:07:03.797Z,8.61
2022-10-22T23:12:07.982Z,8.47
2022-10-22T23:17:13.289Z,8.43
2022-10-22T23:22:17.191Z,8.22
2022-10-22T23:27:21.113Z,8.15
2022-10-22T23:32:26.503Z,8.22
2022-10-22T23:37:30.401Z,8.16
2022-10-22T23:42:34.324Z,8.12
2022-10-22T23:47:39.856Z,8.37
2022-10-22T23:52:44.357Z,8.23
2022-10-22T23:57:48.527Z,8.39
